Map

Track Data

SID SEASON NUMBER BASIN SUBBASIN NAME ISO_TIME NATURE LAT LON WMO_WIND WMO_PRES WMO_AGENCY TRACK_TYPE DIST2LAND LANDFALL IFLAG USA_AGENCY USA_ATCF_ID USA_LAT USA_LON USA_RECORD USA_STATUS USA_WIND USA_PRES USA_SSHS USA_R34_NE USA_R34_SE USA_R34_SW USA_R34_NW USA_R50_NE USA_R50_SE USA_R50_SW USA_R50_NW USA_R64_NE USA_R64_SE USA_R64_SW USA_R64_NW USA_POCI USA_ROCI USA_RMW USA_EYE TOKYO_LAT TOKYO_LON TOKYO_GRADE TOKYO_WIND TOKYO_PRES TOKYO_R50_DIR TOKYO_R50_LONG TOKYO_R50_SHORT TOKYO_R30_DIR TOKYO_R30_LONG TOKYO_R30_SHORT TOKYO_LAND CMA_LAT CMA_LON CMA_CAT CMA_WIND CMA_PRES HKO_LAT HKO_LON HKO_CAT HKO_WIND HKO_PRES NEWDELHI_LAT NEWDELHI_LON NEWDELHI_GRADE NEWDELHI_WIND NEWDELHI_PRES NEWDELHI_CI NEWDELHI_DP NEWDELHI_POCI REUNION_LAT REUNION_LON REUNION_TYPE REUNION_WIND REUNION_PRES REUNION_TNUM REUNION_CI REUNION_RMW REUNION_R34_NE REUNION_R34_SE REUNION_R34_SW REUNION_R34_NW REUNION_R50_NE REUNION_R50_SE REUNION_R50_SW REUNION_R50_NW REUNION_R64_NE REUNION_R64_SE REUNION_R64_SW REUNION_R64_NW BOM_LAT BOM_LON BOM_TYPE BOM_WIND BOM_PRES BOM_TNUM BOM_CI BOM_RMW BOM_R34_NE BOM_R34_SE BOM_R34_SW BOM_R34_NW BOM_R50_NE BOM_R50_SE BOM_R50_SW BOM_R50_NW BOM_R64_NE BOM_R64_SE BOM_R64_SW BOM_R64_NW BOM_ROCI BOM_POCI BOM_EYE BOM_POS_METHOD BOM_PRES_METHOD NADI_LAT NADI_LON NADI_CAT NADI_WIND NADI_PRES WELLINGTON_LAT WELLINGTON_LON WELLINGTON_WIND WELLINGTON_PRES DS824_LAT DS824_LON DS824_STAGE DS824_WIND DS824_PRES TD9636_LAT TD9636_LON TD9636_STAGE TD9636_WIND TD9636_PRES TD9635_LAT TD9635_LON TD9635_WIND TD9635_PRES TD9635_ROCI NEUMANN_LAT NEUMANN_LON NEUMANN_CLASS NEUMANN_WIND NEUMANN_PRES MLC_LAT MLC_LON MLC_CLASS MLC_WIND MLC_PRES USA_GUST BOM_GUST BOM_GUST_PER REUNION_GUST REUNION_GUST_PER USA_SEAHGT USA_SEARAD_NE USA_SEARAD_SE USA_SEARAD_SW USA_SEARAD_NW STORM_SPEED STORM_DIR
1930226N16146 1930 40 WP MM NOT_NAMED 1930-08-13 22:00:00 NR 16.0000 146.200 main 2028 2028 __________O___ -1 16.0000 146.200 7 10 306
1930226N16146 1930 40 WP MM NOT_NAMED 1930-08-14 00:00:00 NR 16.1970 145.919 main 2051 2051 __________P___ -1 16.1970 145.919 7 10 306
1930226N16146 1930 40 WP MM NOT_NAMED 1930-08-14 03:00:00 NR 16.4871 145.503 main 2087 2074 __________P___ -1 16.4871 145.503 7 10 306
1930226N16146 1930 40 WP MM NOT_NAMED 1930-08-14 06:00:00 NR 16.7640 145.100 main 2074 2036 __________P___ -1 16.7640 145.100 7 9 305
1930226N16146 1930 40 WP MM NOT_NAMED 1930-08-14 09:00:00 NR 17.0203 144.720 main 2036 2022 __________P___ -1 17.0203 144.720 7 9 305
1930226N16146 1930 40 WP MM NOT_NAMED 1930-08-14 10:00:00 NR 17.1000 144.600 main 2022 2003 __________O___ -1 17.1000 144.600 7 8 304
1930226N16146 1930 40 WP MM NOT_NAMED 1930-08-14 12:00:00 NR 17.2498 144.370 main 2003 1955 __________P___ -1 17.2498 144.370 7 8 303
1930226N16146 1930 40 WP MM NOT_NAMED 1930-08-14 15:00:00 NR 17.4559 144.032 main 1955 1932 __________P___ -1 17.4559 144.032 7 8 301
1930226N16146 1930 40 WP MM NOT_NAMED 1930-08-14 18:00:00 NR 17.6483 143.672 main 1932 1896 __________P___ -1 17.6483 143.672 7 8 297
1930226N16146 1930 40 WP MM NOT_NAMED 1930-08-14 21:00:00 NR 17.8366 143.257 main 1896 1877 __________P___ -1 17.8366 143.257 7 9 295
1930226N16146 1930 40 WP MM NOT_NAMED 1930-08-14 22:00:00 NR 17.9000 143.100 main 1877 1852 __________O___ -1 17.9000 143.100 7 11 290
1930226N16146 1930 40 WP MM NOT_NAMED 1930-08-15 00:00:00 NR 18.0234 142.727 main 1852 1809 __________P___ -1 18.0234 142.727 7 12 288
1930226N16146 1930 40 WP MM NOT_NAMED 1930-08-15 03:00:00 NR 18.2080 142.105 main 1809 1765 __________P___ -1 18.2080 142.105 7 13 287
1930226N16146 1930 40 WP MM NOT_NAMED 1930-08-15 06:00:00 NR 18.4027 141.448 main 1765 1713 __________P___ -1 18.4027 141.448 7 13 288
1930226N16146 1930 40 WP MM NOT_NAMED 1930-08-15 09:00:00 NR 18.6202 140.804 main 1713 1692 __________P___ -1 18.6202 140.804 7 13 290
1930226N16146 1930 40 WP MM NOT_NAMED 1930-08-15 10:00:00 NR 18.7000 140.600 main 1692 1651 __________O___ -1 18.7000 140.600 7 13 293
1930226N16146 1930 40 WP MM NOT_NAMED 1930-08-15 12:00:00 NR 18.8667 140.189 main 1651 1600 __________P___ -1 18.8667 140.189 7 13 295
1930226N16146 1930 40 WP MM NOT_NAMED 1930-08-15 15:00:00 NR 19.1419 139.602 main 1600 1545 __________P___ -1 19.1419 139.602 7 12 299
1930226N16146 1930 40 WP MM NOT_NAMED 1930-08-15 18:00:00 NR 19.4470 139.090 main 1545 1485 __________P___ -1 19.4470 139.090 7 11 307
1930226N16146 1930 40 WP MM NOT_NAMED 1930-08-15 21:00:00 NR 19.7818 138.697 main 1485 1470 __________P___ -1 19.7818 138.697 7 10 314
1930226N16146 1930 40 WP MM NOT_NAMED 1930-08-15 22:00:00 NR 19.9000 138.600 main 1470 1445 __________O___ -1 19.9000 138.600 7 9 328
1930226N16146 1930 40 WP MM NOT_NAMED 1930-08-16 00:00:00 NR 20.1431 138.458 main 1445 1402 __________P___ -1 20.1431 138.458 7 8 341
1930226N16146 1930 40 WP MM NOT_NAMED 1930-08-16 03:00:00 NR 20.5337 138.366 main 1402 1363 __________P___ -1 20.5337 138.366 7 8 355
1930226N16146 1930 40 WP MM NOT_NAMED 1930-08-16 06:00:00 NR 20.9442 138.382 main 1363 1320 __________P___ -1 20.9442 138.382 7 8 6
1930226N16146 1930 40 WP MM NOT_NAMED 1930-08-16 09:00:00 NR 21.3616 138.465 main 1320 1311 __________P___ -1 21.3616 138.465 7 9 11
1930226N16146 1930 40 WP MM NOT_NAMED 1930-08-16 10:00:00 NR 21.5000 138.500 main 1311 1282 __________O___ -1 21.5000 138.500 7 8 9
1930226N16146 1930 40 WP MM NOT_NAMED 1930-08-16 12:00:00 NR 21.7561 138.534 main 1282 1259 __________P___ -1 21.7561 138.534 7 8 10
1930226N16146 1930 40 WP MM NOT_NAMED 1930-08-16 15:00:00 NR 22.1400 138.621 main 1259 1228 __________P___ -1 22.1400 138.621 7 8 15
1930226N16146 1930 40 WP MM NOT_NAMED 1930-08-16 18:00:00 NR 22.5349 138.754 main 1234 1194 __________P___ -1 22.5349 138.754 7 9 19
1930226N16146 1930 40 WP MM NOT_NAMED 1930-08-16 21:00:00 NR 22.9532 138.931 main 1194 1191 __________P___ -1 22.9532 138.931 7 9 22
1930226N16146 1930 40 WP MM NOT_NAMED 1930-08-16 22:00:00 NR 23.1000 139.000 main 1191 1161 __________O___ -1 23.1000 139.000 7 10 22
1930226N16146 1930 40 WP MM NOT_NAMED 1930-08-17 00:00:00 NR 23.4024 139.126 main 1161 1113 __________P___ -1 23.4024 139.126 7 10 23
1930226N16146 1930 40 WP MM NOT_NAMED 1930-08-17 03:00:00 NR 23.8810 139.353 main 1116 1070 __________P___ -1 23.8810 139.353 7 11 25
1930226N16146 1930 40 WP MM NOT_NAMED 1930-08-17 06:00:00 NR 24.3872 139.632 main 1070 1028 __________P___ -1 24.3872 139.632 7 12 29
1930226N16146 1930 40 WP MM NOT_NAMED 1930-08-17 09:00:00 NR 24.9181 139.972 main 1032 1015 __________P___ -1 24.9181 139.972 7 12 31
1930226N16146 1930 40 WP MM NOT_NAMED 1930-08-17 10:00:00 NR 25.1000 140.100 main 1015 987 __________O___ -1 25.1000 140.100 7 14 34
1930226N16146 1930 40 WP MM NOT_NAMED 1930-08-17 12:00:00 NR 25.5063 140.403 main 987 951 __________P___ -1 25.5063 140.403 7 15 35
1930226N16146 1930 40 WP MM NOT_NAMED 1930-08-17 15:00:00 NR 26.1352 140.917 main 951 915 __________P___ -1 26.1352 140.917 7 16 37
1930226N16146 1930 40 WP MM NOT_NAMED 1930-08-17 18:00:00 NR 26.7370 141.452 main 918 869 __________P___ -1 26.7370 141.452 7 15 40
1930226N16146 1930 40 WP MM NOT_NAMED 1930-08-17 21:00:00 NR 27.2554 141.951 main 869 862 __________P___ -1 27.2554 141.951 7 13 41
1930226N16146 1930 40 WP MM NOT_NAMED 1930-08-17 22:00:00 NR 27.4000 142.100 main 862 845 __________O___ -1 27.4000 142.100 3 10 43
1930226N16146 1930 40 WP MM NOT_NAMED 1930-08-18 00:00:00 NR 27.6233 142.334 main 845 821 __________P___ -1 27.6233 142.334 3 8 45
1930226N16146 1930 40 WP MM NOT_NAMED 1930-08-18 03:00:00 NR 27.8646 142.627 main 821 817 __________P___ -1 27.8646 142.627 3 6 50
1930226N16146 1930 40 WP MM NOT_NAMED 1930-08-18 06:00:00 NR 28.0294 142.877 main 820 806 __________P___ -1 28.0294 142.877 3 5 56
1930226N16146 1930 40 WP MM NOT_NAMED 1930-08-18 09:00:00 NR 28.1582 143.117 main 806 806 __________P___ -1 28.1582 143.117 3 5 59
1930226N16146 1930 40 WP MM NOT_NAMED 1930-08-18 10:00:00 NR 28.2000 143.200 main 809 803 __________O___ -1 28.2000 143.200 4 5 61
1930226N16146 1930 40 WP MM NOT_NAMED 1930-08-18 12:00:00 NR 28.2887 143.377 main 807 800 __________P___ -1 28.2887 143.377 4 6 60
1930226N16146 1930 40 WP MM NOT_NAMED 1930-08-18 15:00:00 NR 28.4332 143.665 main 808 797 __________P___ -1 28.4332 143.665 4 6 60
1930226N16146 1930 40 WP MM NOT_NAMED 1930-08-18 18:00:00 NR 28.5873 143.972 main 802 796 __________P___ -1 28.5873 143.972 4 6 60
1930226N16146 1930 40 WP MM NOT_NAMED 1930-08-18 21:00:00 NR 28.7466 144.292 main 806 796 __________P___ -1 28.7466 144.292 4 6 60
1930226N16146 1930 40 WP MM NOT_NAMED 1930-08-18 22:00:00 NR 28.8000 144.400 main 801 __________O___ -1 28.8000 144.400 4 7 61

Digital Typhoon Data and Search

About IBTrACS Database

This database is a web-friendly format of International Best Track Archive for Climate Stewardship (IBTrACS), a global best track data archive curated by NOAA dating back to 1842.

Updated: 2021-12-06